Time;durP1;ratioP1;P1;durP2;ratioP2;P2;SDS_P1;SDS_P2;PMS_P1;PMS_P2;Temp;Humidity;BMP_temperature;BMP_pressure;BME280_temperature;BME280_humidity;BME280_pressure;Samples;Min_cycle;Max_cycle;Signal;HPM_P1;HPM_P2
2021/12/11 00:01:10;;;;;;;21.80;4.57;;;;;;;3.41;90.73;100707.34;4972351;28;100916;-34
2021/12/11 00:03:43;;;;;;;7.95;3.60;;;;;;;3.41;90.64;100723.41;4971801;28;101244;-34
2021/12/11 00:06:13;;;;;;;9.10;5.07;;;;;;;3.42;91.09;100721.63;4972420;28;96636;-34
2021/12/11 00:08:41;;;;;;;12.30;4.45;;;;;;;3.43;90.71;100724.22;4989450;28;96681;-34
2021/12/11 00:11:14;;;;;;;10.18;3.97;;;;;;;3.43;90.82;100723.34;4973756;28;97860;-34
2021/12/11 00:13:41;;;;;;;6.25;4.30;;;;;;;3.43;90.91;100740.28;4971997;28;100930;-34
2021/12/11 00:16:10;;;;;;;11.20;5.30;;;;;;;3.44;90.93;100743.84;4988282;28;97436;-34
2021/12/11 00:18:37;;;;;;;11.45;5.32;;;;;;;3.39;90.57;100734.16;4972127;28;96892;-34
2021/12/11 00:21:08;;;;;;;6.80;4.72;;;;;;;3.47;90.75;100749.09;4972041;28;100815;-34
2021/12/11 00:23:40;;;;;;;11.57;5.18;;;;;;;3.47;90.82;100757.13;4972097;28;101198;-34
2021/12/11 00:26:10;;;;;;;6.95;4.13;;;;;;;3.49;90.71;100752.59;4988509;28;96722;-35
2021/12/11 00:28:48;;;;;;;9.15;5.15;;;;;;;3.40;91.35;100751.97;4972177;28;96780;-34
2021/12/11 00:31:14;;;;;;;7.38;4.32;;;;;;;3.41;91.54;100755.56;4971891;28;101159;-34
2021/12/11 00:33:39;;;;;;;9.55;4.85;;;;;;;3.47;91.15;100776.75;4971979;28;100626;-34
2021/12/11 00:36:16;;;;;;;8.52;4.45;;;;;;;3.43;90.70;100774.22;4973413;28;96528;-34
2021/12/11 00:38:42;;;;;;;9.65;4.43;;;;;;;3.50;90.64;100789.16;4971781;28;96587;-34
2021/12/11 00:41:11;;;;;;;9.75;4.65;;;;;;;3.49;90.55;100793.63;4971352;28;100605;-34
2021/12/11 00:43:40;;;;;;;14.43;5.07;;;;;;;3.47;90.90;100797.28;4971685;28;100004;-34
2021/12/11 00:46:09;;;;;;;7.80;4.65;;;;;;;3.44;90.72;100787.56;4971690;28;96742;-34
2021/12/11 00:48:35;;;;;;;9.30;4.43;;;;;;;3.51;90.93;100801.63;4971522;28;96804;-34
2021/12/11 00:51:06;;;;;;;6.85;4.22;;;;;;;3.51;90.81;100805.19;4973318;28;97473;-34
2021/12/11 00:53:44;;;;;;;9.13;5.55;;;;;;;3.55;91.17;100814.88;4971247;28;98974;-35
2021/12/11 00:56:15;;;;;;;9.55;3.72;;;;;;;3.50;91.08;100813.25;4973328;28;96591;-34
2021/12/11 00:58:42;;;;;;;8.00;4.35;;;;;;;3.46;90.78;100811.63;4988749;28;96699;-34
2021/12/11 01:01:07;;;;;;;6.97;3.70;;;;;;;3.56;91.09;100840.72;4971408;28;101056;-34
2021/12/11 01:03:41;;;;;;;7.18;3.75;;;;;;;3.56;90.90;100840.72;4972229;28;106367;-34
2021/12/11 01:06:15;;;;;;;9.50;5.38;;;;;;;3.54;91.08;100841.69;4972251;28;96517;-34
2021/12/11 01:08:47;;;;;;;12.93;5.05;;;;;;;3.51;90.81;100842.66;4971556;28;96753;-34
2021/12/11 01:11:42;;;;;;;7.50;3.92;;;;;;;3.57;91.17;100854.97;4987278;28;100800;-34
2021/12/11 01:14:25;;;;;;;8.07;3.35;;;;;;;3.55;91.01;100863.06;4972155;28;97818;-34
2021/12/11 01:16:57;;;;;;;7.10;4.25;;;;;;;3.56;91.10;100866.63;4973121;28;96475;-34
2021/12/11 01:19:25;;;;;;;6.35;3.92;;;;;;;3.49;90.62;100851.69;4971554;28;96755;-34
2021/12/11 01:21:57;;;;;;;5.65;3.70;;;;;;;3.52;90.95;100864.97;4971191;28;101080;-34
2021/12/11 01:24:30;;;;;;;7.38;3.67;;;;;;;3.58;90.88;100881.72;4971518;28;101020;-34
2021/12/11 01:27:00;;;;;;;8.27;3.15;;;;;;;3.59;91.11;100877.22;4972638;28;96559;-34
2021/12/11 01:29:29;;;;;;;8.07;3.17;;;;;;;3.59;91.11;100883.44;4971291;28;96823;-34
2021/12/11 01:31:56;;;;;;;5.85;3.53;;;;;;;3.54;90.72;100884.53;4970434;28;98880;-34
2021/12/11 01:34:23;;;;;;;5.05;3.08;;;;;;;3.55;90.97;100891.63;4971172;28;98932;-34
2021/12/11 01:36:49;;;;;;;11.40;4.50;;;;;;;3.61;90.98;100910.19;4971117;28;96790;-34
2021/12/11 01:39:19;;;;;;;5.72;4.05;;;;;;;3.56;91.04;100906.78;4972444;28;96813;-34
2021/12/11 01:41:46;;;;;;;6.25;3.72;;;;;;;3.58;91.23;100900.47;4971111;28;100766;-34
2021/12/11 01:44:16;;;;;;;13.20;4.82;;;;;;;3.53;90.89;100897.06;4970865;28;101196;-34
2021/12/11 01:46:42;;;;;;;6.68;3.55;;;;;;;3.56;91.00;100906.78;4987626;28;96574;-34
2021/12/11 01:49:13;;;;;;;12.82;5.45;;;;;;;3.56;91.21;100920.19;4971438;28;96778;-34
2021/12/11 01:51:44;;;;;;;8.32;4.93;;;;;;;3.52;91.05;100924.75;4970627;28;100974;-34
2021/12/11 01:54:21;;;;;;;3.78;2.65;;;;;;;3.57;91.18;100929.97;4987347;28;101136;-34
2021/12/11 01:56:52;;;;;;;5.95;3.63;;;;;;;3.57;91.01;100932.63;4986886;28;97448;-34
2021/12/11 01:59:26;;;;;;;9.45;3.80;;;;;;;3.51;90.87;100927.50;4971040;28;97365;-34
2021/12/11 02:02:05;;;;;;;5.90;3.70;;;;;;;3.51;91.42;100932.84;4987220;28;103287;-34
2021/12/11 02:04:35;;;;;;;11.80;4.82;;;;;;;3.58;91.36;100942.44;4970321;28;100731;-34
2021/12/11 02:07:05;;;;;;;9.70;3.13;;;;;;;3.57;91.26;100944.22;4970952;28;96638;-34
2021/12/11 02:09:35;;;;;;;10.00;4.15;;;;;;;3.52;90.61;100937.25;4970949;28;96622;-34
2021/12/11 02:12:19;;;;;;;8.38;3.92;;;;;;;3.52;90.89;100951.53;4970751;28;100667;-34
2021/12/11 02:14:49;;;;;;;5.45;3.03;;;;;;;3.49;90.80;100953.44;4970916;28;100849;-34
2021/12/11 02:17:32;;;;;;;7.95;3.50;;;;;;;3.55;90.97;100966.63;4970644;28;97589;-34
2021/12/11 02:19:59;;;;;;;6.35;3.55;;;;;;;3.53;90.70;100969.38;4972062;28;96717;-34
2021/12/11 02:22:36;;;;;;;7.80;4.65;;;;;;;3.54;90.95;100980.94;4971528;28;101235;-34
2021/12/11 02:25:10;;;;;;;11.75;4.47;;;;;;;3.44;91.23;100966.97;4975261;28;97953;-34
2021/12/11 02:27:45;;;;;;;14.07;3.70;;;;;;;3.45;91.28;100978.53;4975571;28;96664;-34
2021/12/11 02:30:36;;;;;;;5.45;3.33;;;;;;;3.45;91.47;100989.25;4974207;28;96644;-34
2021/12/11 02:33:07;;;;;;;8.70;4.65;;;;;;;3.45;90.91;101003.50;4974968;28;99010;-34
2021/12/11 02:35:52;;;;;;;7.27;4.03;;;;;;;3.39;91.38;100990.31;4973741;28;100853;-34
2021/12/11 02:38:29;;;;;;;5.95;3.10;;;;;;;3.33;91.07;100999.38;4975582;28;96732;-34
2021/12/11 02:41:13;;;;;;;6.15;3.17;;;;;;;3.38;91.49;101018.91;4974162;28;96686;-34
2021/12/11 02:44:07;;;;;;;4.90;2.67;;;;;;;3.34;90.98;101017.22;4975263;28;97914;-35
2021/12/11 02:46:32;;;;;;;4.18;2.88;;;;;;;3.35;91.23;101021.66;4975274;28;97265;-34
2021/12/11 02:49:06;;;;;;;8.57;3.72;;;;;;;3.30;91.20;101012.88;4974846;28;96564;-34
2021/12/11 02:51:50;;;;;;;12.10;5.55;;;;;;;3.31;91.34;101021.78;4990218;28;97049;-34
2021/12/11 02:54:31;;;;;;;7.95;3.03;;;;;;;3.33;91.44;101028.84;4973309;28;100854;-34
2021/12/11 02:57:01;;;;;;;6.90;3.17;;;;;;;3.36;91.16;101039.47;4974852;28;99197;-34
2021/12/11 02:59:29;;;;;;;5.72;2.55;;;;;;;3.30;91.58;101020.91;4990165;28;96611;-34
2021/12/11 03:02:02;;;;;;;5.68;2.97;;;;;;;3.36;91.36;101034.13;4975143;28;96720;-34
2021/12/11 03:04:36;;;;;;;7.78;2.97;;;;;;;3.33;91.40;101030.66;4972976;28;100796;-34
2021/12/11 03:07:07;;;;;;;8.07;3.22;;;;;;;3.29;91.21;101029.88;4990288;28;100808;-34
2021/12/11 03:09:35;;;;;;;6.38;3.20;;;;;;;3.29;90.99;101031.66;4975019;28;96602;-34
2021/12/11 03:12:04;;;;;;;11.00;4.05;;;;;;;3.28;91.08;101030.78;4989828;28;96807;-34
2021/12/11 03:14:31;;;;;;;6.53;3.25;;;;;;;3.31;91.43;101035.16;4972728;28;102063;-34
2021/12/11 03:16:57;;;;;;;3.65;2.15;;;;;;;3.25;90.96;101030.88;4989741;28;101336;-34
2021/12/11 03:19:29;;;;;;;7.45;2.85;;;;;;;3.27;91.39;101036.19;4974745;28;96605;-34
2021/12/11 03:21:58;;;;;;;7.95;3.40;;;;;;;3.25;91.37;101038.03;4973251;28;96723;-34
2021/12/11 03:24:27;;;;;;;4.72;2.95;;;;;;;3.27;91.23;101053.13;4973063;28;100684;-34
2021/12/11 03:26:54;;;;;;;8.95;3.90;;;;;;;3.26;90.92;101045.13;4973001;28;101083;-34
2021/12/11 03:29:21;;;;;;;7.18;3.75;;;;;;;3.28;91.40;101052.19;4989749;28;96640;-34
2021/12/11 03:31:46;;;;;;;5.45;3.30;;;;;;;3.23;91.16;101050.56;4989697;28;98060;-34
2021/12/11 03:34:24;;;;;;;9.52;4.60;;;;;;;3.25;91.04;101062.13;4973706;28;97288;-34
2021/12/11 03:36:50;;;;;;;4.60;2.92;;;;;;;3.18;91.00;101048.03;4972846;28;103828;-34
2021/12/11 03:39:20;;;;;;;5.22;2.83;;;;;;;3.23;91.25;101056.78;4972474;28;97053;-34
2021/12/11 03:41:49;;;;;;;5.50;3.13;;;;;;;3.18;91.04;101053.38;4989494;28;96826;-34
2021/12/11 03:44:15;;;;;;;7.53;3.78;;;;;;;3.14;91.26;101054.38;4972588;28;100986;-34
2021/12/11 03:46:43;;;;;;;9.40;4.10;;;;;;;3.15;91.22;101066.84;4972605;28;100780;-34
2021/12/11 03:49:13;;;;;;;6.75;3.03;;;;;;;3.21;90.99;101068.47;4972747;28;96731;-34
2021/12/11 03:51:41;;;;;;;5.45;3.33;;;;;;;3.20;91.24;101072.94;4972707;28;96912;-34
2021/12/11 03:54:12;;;;;;;8.57;3.78;;;;;;;3.18;91.40;101064.09;4972224;28;98054;-34
2021/12/11 03:56:38;;;;;;;5.83;3.00;;;;;;;3.10;91.76;101050.91;4972834;28;100849;-34
2021/12/11 03:59:09;;;;;;;8.05;4.85;;;;;;;3.18;91.90;101053.38;4972574;28;96610;-34
2021/12/11 04:01:40;;;;;;;4.18;3.00;;;;;;;3.22;91.43;101073.78;4972541;28;96661;-34
2021/12/11 04:04:11;;;;;;;6.18;3.60;;;;;;;3.25;91.69;101075.50;4972924;28;97976;-34
2021/12/11 04:06:37;;;;;;;5.20;4.03;;;;;;;3.23;92.15;101067.50;4972356;28;100683;-34
2021/12/11 04:09:08;;;;;;;7.63;3.75;;;;;;;3.33;91.97;101084.19;4973870;28;96457;-34
2021/12/11 04:11:34;;;;;;;5.05;3.30;;;;;;;3.30;91.55;101071.75;4972556;28;96670;-34
2021/12/11 04:14:05;;;;;;;9.55;4.22;;;;;;;3.33;91.80;101079.72;4972296;28;100294;-34
2021/12/11 04:16:32;;;;;;;4.32;2.22;;;;;;;3.27;91.32;101073.66;4988875;28;100667;-34
2021/12/11 04:18:57;;;;;;;12.00;4.10;;;;;;;3.29;91.64;101085.19;4972185;28;96633;-34
2021/12/11 04:21:23;;;;;;;8.35;4.47;;;;;;;3.29;91.47;101094.13;4974188;28;96740;-34
2021/12/11 04:23:48;;;;;;;3.40;2.08;;;;;;;3.26;91.64;101094.19;4971898;28;100835;-34
2021/12/11 04:26:14;;;;;;;4.72;3.28;;;;;;;3.28;91.62;101096.81;4973388;28;97435;-34
2021/12/11 04:28:41;;;;;;;5.47;2.95;;;;;;;3.28;91.14;101100.38;4972859;28;96582;-34
2021/12/11 04:31:14;;;;;;;10.85;3.00;;;;;;;3.19;91.68;101093.50;4988798;28;96780;-34
2021/12/11 04:33:45;;;;;;;6.38;3.53;;;;;;;3.22;91.70;101111.28;4988446;28;101627;-34
2021/12/11 04:36:17;;;;;;;5.00;2.85;;;;;;;3.17;91.57;101100.69;4971789;28;100867;-34
2021/12/11 04:38:44;;;;;;;4.72;3.25;;;;;;;3.19;91.58;101103.28;4971899;28;98642;-34
2021/12/11 04:41:15;;;;;;;7.50;2.88;;;;;;;3.26;91.96;101115.59;4988432;28;96783;-34
2021/12/11 04:43:41;;;;;;;16.45;5.72;;;;;;;3.26;91.85;101112.91;4971752;28;101115;-34
2021/12/11 04:46:09;;;;;;;7.20;2.58;;;;;;;3.27;91.63;101125.41;4971015;28;99922;-34
2021/12/11 04:54:10;;;;;;;4.65;2.92;;;;;;;3.23;91.70;101120.16;4972136;28;97904;-34
2021/12/11 04:57:07;;;;;;;3.97;2.33;;;;;;;3.23;91.60;101126.41;4972944;28;98799;-34
2021/12/11 05:10:21;;;;;;;5.03;2.85;;;;;;;3.14;91.59;101137.34;4970816;28;96792;-34
2021/12/11 05:12:52;;;;;;;5.40;3.15;;;;;;;3.09;91.79;101131.22;4973504;28;96571;-34
2021/12/11 05:15:28;;;;;;;13.20;3.08;;;;;;;3.11;91.47;101135.63;4971307;28;100931;-34
2021/12/11 05:17:55;;;;;;;9.07;2.88;;;;;;;3.16;91.53;101152.44;4987514;28;101001;-34
2021/12/11 05:20:25;;;;;;;5.60;2.75;;;;;;;3.17;91.97;101153.31;4987578;28;96939;-34
2021/12/11 05:22:51;;;;;;;7.53;3.13;;;;;;;3.22;91.63;101154.09;4971353;28;96801;-34
2021/12/11 05:25:16;;;;;;;5.60;2.08;;;;;;;3.25;91.34;101156.69;4971159;28;100659;-34
2021/12/11 05:27:44;;;;;;;2.25;1.27;;;;;;;3.33;91.95;101159.16;4972671;28;97291;-34
2021/12/11 05:30:15;;;;;;;1.83;1.05;;;;;;;3.34;91.68;101159.13;4971381;28;96518;-34
2021/12/11 05:32:41;;;;;;;0.68;0.65;;;;;;;3.47;91.67;101166.81;4972587;28;96619;-34
2021/12/11 05:35:07;;;;;;;0.17;0.17;;;;;;;3.53;91.41;101162.19;4972507;28;98055;-34
2021/12/11 05:37:34;;;;;;;0.05;0.03;;;;;;;3.64;91.48;101171.72;4971483;28;100525;-34
2021/12/11 05:39:59;;;;;;;2.45;0.63;;;;;;;3.61;91.29;101149.44;4971090;28;96610;-34
2021/12/11 05:42:25;;;;;;;0.30;0.20;;;;;;;3.69;91.62;101157.25;4972677;28;96773;-34
2021/12/11 05:44:50;;;;;;;0.20;0.13;;;;;;;3.74;91.21;101170.53;4971871;28;97620;-35
2021/12/11 05:47:16;;;;;;;0.38;0.15;;;;;;;3.76;91.57;101166.88;4972170;28;97872;-34
2021/12/11 05:49:44;;;;;;;1.85;0.35;;;;;;;3.78;91.61;101173.06;4972499;28;96539;-34
2021/12/11 05:52:11;;;;;;;0.03;0.03;;;;;;;3.84;91.59;101166.69;4987640;28;96909;-34
2021/12/11 05:54:39;;;;;;;0.32;0.32;;;;;;;3.89;90.93;101178.16;4970664;28;100394;-34
2021/12/11 05:57:10;;;;;;;0.22;0.05;;;;;;;3.95;91.21;101188.66;4970561;28;100953;-34
2021/12/11 05:59:36;;;;;;;3.58;0.13;;;;;;;3.92;91.43;101183.41;4970815;28;96647;-34
2021/12/11 06:02:13;;;;;;;0.10;0.10;;;;;;;4.02;91.03;101200.97;4971372;28;96880;-34
2021/12/11 06:04:39;;;;;;;0.00;0.00;;;;;;;3.99;91.16;101202.88;4987277;28;100921;-34
2021/12/11 06:07:08;;;;;;;0.50;0.50;;;;;;;4.03;91.40;101201.88;4970576;28;100495;-34
2021/12/11 06:09:36;;;;;;;0.00;0.00;;;;;;;4.04;90.97;101209.84;4986833;28;97401;-34
2021/12/11 06:12:06;;;;;;;8.05;1.13;;;;;;;4.13;91.15;101222.13;4970590;28;96797;-34
2021/12/11 06:14:33;;;;;;;0.55;0.20;;;;;;;4.09;91.25;101223.13;4970674;28;103024;-34
2021/12/11 06:17:00;;;;;;;0.73;0.17;;;;;;;4.16;91.70;101242.59;4970617;28;101014;-34
2021/12/11 06:19:27;;;;;;;0.13;0.10;;;;;;;4.20;91.41;101238.91;4972167;28;96548;-34
2021/12/11 06:21:53;;;;;;;1.50;0.25;;;;;;;4.17;91.39;101237.19;4972084;28;96723;-34
2021/12/11 06:24:19;;;;;;;0.10;0.10;;;;;;;4.22;91.53;101239.75;4970616;28;101264;-34
2021/12/11 06:26:45;;;;;;;0.03;0.03;;;;;;;4.30;91.85;101263.66;4970613;28;100495;-34
2021/12/11 06:29:11;;;;;;;4.00;0.55;;;;;;;4.29;91.83;101253.84;4970560;28;96689;-34
2021/12/11 06:31:36;;;;;;;1.55;0.30;;;;;;;4.35;92.13;101275.13;4987135;28;96868;-34
2021/12/11 06:34:02;;;;;;;1.95;0.20;;;;;;;4.38;91.80;101275.03;4971097;28;99373;-34
2021/12/11 06:36:29;;;;;;;0.70;0.10;;;;;;;4.45;91.79;101282.84;4971824;28;97420;-34
2021/12/11 06:38:59;;;;;;;1.02;0.28;;;;;;;4.44;91.91;101280.22;4986862;28;99830;-34
2021/12/11 06:41:30;;;;;;;0.90;0.30;;;;;;;4.52;91.94;101291.59;4987043;28;96746;-34
2021/12/11 06:43:56;;;;;;;0.00;0.00;;;;;;;4.57;91.67;101303.06;4970476;28;100816;-34
2021/12/11 06:46:22;;;;;;;0.30;0.17;;;;;;;4.57;91.93;101304.88;4986614;28;100673;-34
2021/12/11 06:48:47;;;;;;;1.27;0.52;;;;;;;4.54;91.50;101297.78;4971785;28;96567;-34
2021/12/11 06:51:13;;;;;;;0.00;0.00;;;;;;;4.58;91.46;101309.34;4970645;28;96570;-34
2021/12/11 06:53:55;;;;;;;0.52;0.10;;;;;;;4.63;91.57;101302.91;4971272;28;97546;-34
2021/12/11 06:56:21;;;;;;;;;;;;;;;4.67;91.72;101320.66;4987146;28;101767;-34
2021/12/11 06:58:47;;;;;;;0.13;0.08;;;;;;;4.62;92.02;101317.25;4971736;28;96567;-34
2021/12/11 07:01:14;;;;;;;0.00;0.00;;;;;;;4.68;91.40;101325.09;4970046;28;99834;-34
2021/12/11 07:03:41;;;;;;;0.00;0.00;;;;;;;4.71;91.73;101332.19;4969690;28;101044;-34
2021/12/11 07:06:08;;;;;;;0.82;0.32;;;;;;;4.70;91.45;101337.59;4969821;28;101173;-35
2021/12/11 07:08:36;;;;;;;0.00;0.00;;;;;;;4.70;91.17;101337.59;4971644;28;96533;-34
2021/12/11 07:11:01;;;;;;;3.38;0.32;;;;;;;4.74;91.39;101344.63;4974889;28;96729;-34
2021/12/11 07:13:28;;;;;;;0.10;0.10;;;;;;;4.73;91.37;101354.47;4974648;28;97870;-34
2021/12/11 07:15:56;;;;;;;0.08;0.08;;;;;;;4.72;91.17;101347.38;4975029;28;97980;-34
2021/12/11 07:18:21;;;;;;;0.05;0.05;;;;;;;4.75;91.21;101368.75;4974718;28;96460;-34
2021/12/11 07:20:47;;;;;;;0.80;0.40;;;;;;;4.73;91.48;101359.84;4974903;28;96830;-34
2021/12/11 07:23:12;;;;;;;0.63;0.20;;;;;;;4.80;91.81;101368.59;4973003;28;126981;-34
2021/12/11 07:25:42;;;;;;;0.00;0.00;;;;;;;4.77;91.68;101384.81;4974476;28;97928;-34
2021/12/11 07:28:10;;;;;;;0.10;0.10;;;;;;;4.84;91.37;101398.00;4974346;28;104916;-34
2021/12/11 07:30:38;;;;;;;0.28;0.28;;;;;;;4.78;91.50;101391.91;4974571;28;96763;-34
2021/12/11 07:33:05;;;;;;;6.30;0.28;;;;;;;4.79;91.99;101399.03;4972671;28;100877;-34
2021/12/11 07:35:32;;;;;;;0.47;0.20;;;;;;;4.85;92.01;101399.75;4989336;28;100734;-34
2021/12/11 07:37:58;;;;;;;0.30;0.20;;;;;;;4.86;91.73;101414.03;4972878;28;96650;-34
2021/12/11 07:40:27;;;;;;;0.63;0.03;;;;;;;4.81;92.03;101408.78;4989918;28;96678;-34
2021/12/11 07:42:54;;;;;;;0.00;0.00;;;;;;;4.86;92.25;101412.25;4989453;28;99207;-34
2021/12/11 07:45:19;;;;;;;0.03;0.03;;;;;;;4.90;91.69;101426.44;4972692;28;100731;-34
2021/12/11 07:47:44;;;;;;;0.57;0.20;;;;;;;4.93;91.66;101438.91;4973736;28;96573;-34
2021/12/11 07:50:11;;;;;;;0.73;0.40;;;;;;;4.95;91.90;101435.25;4974012;28;96780;-34
2021/12/11 07:52:37;;;;;;;1.27;0.05;;;;;;;4.93;92.04;101444.28;4972551;28;100974;-34
2021/12/11 07:55:04;;;;;;;1.63;0.73;;;;;;;4.95;92.12;101448.66;4973370;28;97791;-33
2021/12/11 07:57:30;;;;;;;1.55;0.55;;;;;;;5.00;91.73;101461.97;4972643;28;96522;-34
2021/12/11 07:59:55;;;;;;;5.72;1.02;;;;;;;4.97;91.98;101454.00;4972565;28;96845;-34
2021/12/11 08:02:20;;;;;;;0.38;0.17;;;;;;;5.02;91.89;101463.69;4973380;28;97982;-34
2021/12/11 08:04:46;;;;;;;0.20;0.10;;;;;;;5.03;92.07;101473.50;4974052;28;97368;-34
2021/12/11 08:07:11;;;;;;;10.82;0.80;;;;;;;4.94;92.19;101471.09;4973979;28;96556;-35
2021/12/11 08:09:37;;;;;;;6.50;0.75;;;;;;;5.07;91.87;101495.75;4973988;28;96816;-35
2021/12/11 08:12:04;;;;;;;2.17;1.15;;;;;;;5.05;92.11;101490.47;4988491;28;101223;-34
2021/12/11 08:14:29;;;;;;;3.70;1.20;;;;;;;5.00;92.48;101483.44;4956008;28;100837;-35
2021/12/11 08:16:58;;;;;;;2.45;0.90;;;;;;;5.08;92.28;101486.81;4973786;28;96589;-35
2021/12/11 08:19:26;;;;;;;0.43;0.43;;;;;;;5.03;92.37;101481.56;4972104;28;96764;-34
2021/12/11 08:21:57;;;;;;;3.70;0.95;;;;;;;5.06;92.00;101497.56;4972011;28;100907;-34
2021/12/11 08:24:25;;;;;;;1.65;0.98;;;;;;;5.02;92.07;101498.56;4972244;28;101153;-34
2021/12/11 08:26:52;;;;;;;8.77;1.30;;;;;;;5.11;92.23;101506.38;4972133;28;96701;-35
2021/12/11 08:29:21;;;;;;;1.02;0.77;;;;;;;5.10;92.00;101512.69;4988928;28;97381;-34
2021/12/11 08:31:51;;;;;;;0.60;0.60;;;;;;;5.17;91.94;101525.91;4971848;28;98073;-34
2021/12/11 08:34:17;;;;;;;0.63;0.20;;;;;;;5.15;91.68;101525.06;4988439;28;101558;-35
2021/12/11 08:36:49;;;;;;;2.05;1.52;;;;;;;5.18;91.33;101541.13;4971546;28;96711;-34
2021/12/11 08:39:17;;;;;;;2.20;1.10;;;;;;;5.19;91.48;101538.38;4973290;28;96631;-34
2021/12/11 08:41:50;;;;;;;6.25;1.75;;;;;;;5.20;92.01;101544.66;4955707;28;99151;-34
2021/12/11 08:44:17;;;;;;;1.38;0.75;;;;;;;5.19;91.93;101548.25;4972809;28;99644;-34
2021/12/11 08:46:48;;;;;;;2.63;1.27;;;;;;;5.16;91.71;101545.66;4971852;28;96750;-34
2021/12/11 08:49:18;;;;;;;3.63;0.75;;;;;;;5.16;91.38;101548.34;4972027;28;96688;-34
2021/12/11 08:51:51;;;;;;;6.45;1.77;;;;;;;5.20;91.63;101563.47;4971732;28;100402;-35
2021/12/11 08:54:18;;;;;;;1.27;1.10;;;;;;;5.20;91.24;101558.09;4973089;28;99123;-34
2021/12/11 08:56:45;;;;;;;2.70;1.63;;;;;;;5.19;91.46;101580.47;4971634;28;96717;-34
2021/12/11 08:59:14;;;;;;;5.47;2.05;;;;;;;5.22;91.41;101592.03;4973083;28;96754;-34
2021/12/11 09:02:01;;;;;;;10.45;1.73;;;;;;;5.23;91.55;101587.53;4970967;28;101137;-34
2021/12/11 09:04:55;;;;;;;1.98;1.52;;;;;;;5.20;91.61;101590.31;4972478;28;98772;-34
2021/12/11 09:07:30;;;;;;;3.33;1.80;;;;;;;5.21;91.89;101590.25;4972937;28;96497;-34
2021/12/11 09:10:21;;;;;;;3.75;1.58;;;;;;;5.25;91.88;101596.44;4971572;28;96563;-34
2021/12/11 09:13:07;;;;;;;2.17;1.27;;;;;;;5.24;91.96;101609.00;4973048;28;97618;-34
2021/12/11 09:15:41;;;;;;;6.20;1.75;;;;;;;5.25;92.13;101602.69;4971416;28;97948;-34
2021/12/11 09:18:18;;;;;;;2.15;1.60;;;;;;;5.23;92.02;101606.34;4973054;28;96533;-34
2021/12/11 09:21:03;;;;;;;5.80;2.13;;;;;;;5.23;92.35;101607.22;4971957;28;96568;-34
2021/12/11 09:23:42;;;;;;;2.63;1.40;;;;;;;5.21;92.34;101600.13;4987890;28;101313;-35
2021/12/11 09:26:14;;;;;;;2.20;1.38;;;;;;;5.24;91.82;101602.72;4987573;28;101064;-34
2021/12/11 09:28:40;;;;;;;1.85;1.23;;;;;;;5.25;92.14;101615.22;4970870;28;97429;-34
2021/12/11 09:31:34;;;;;;;2.70;1.13;;;;;;;5.25;92.04;101629.53;4972177;28;96773;-34
2021/12/11 09:34:06;;;;;;;3.63;1.23;;;;;;;5.22;92.19;101634.09;4972440;28;98000;-35
2021/12/11 09:36:39;;;;;;;2.20;1.63;;;;;;;5.23;92.19;101639.44;4971283;28;101117;-34
2021/12/11 09:39:12;;;;;;;3.47;1.58;;;;;;;5.26;92.01;101642.03;4971348;28;96807;-34
2021/12/11 09:41:37;;;;;;;3.97;2.03;;;;;;;5.29;92.33;101647.34;4971178;28;96717;-34
2021/12/11 09:44:11;;;;;;;5.33;2.00;;;;;;;5.35;91.90;101648.09;4971437;28;126198;-34
2021/12/11 09:47:00;;;;;;;7.28;2.53;;;;;;;5.37;92.08;101649.81;4972267;28;101855;-34
2021/12/11 09:49:35;;;;;;;2.63;1.17;;;;;;;5.37;92.00;101647.13;4971215;28;96613;-34
2021/12/11 09:52:18;;;;;;;2.88;0.98;;;;;;;5.44;92.04;101661.28;4972642;28;96542;-34
2021/12/11 09:54:49;;;;;;;4.32;1.95;;;;;;;5.47;91.91;101662.06;4971744;28;97977;-34
2021/12/11 09:57:31;;;;;;;10.27;2.77;;;;;;;5.47;91.90;101655.81;4954784;28;97962;-34
2021/12/11 09:59:59;;;;;;;3.10;1.33;;;;;;;5.56;91.83;101660.94;4987220;28;96566;-34
2021/12/11 10:02:29;;;;;;;4.80;1.83;;;;;;;5.62;91.29;101671.50;4987045;28;96797;-34
2021/12/11 10:05:29;;;;;;;5.18;2.65;;;;;;;5.67;91.59;101674.06;4971099;28;99251;-34
2021/12/11 10:08:35;;;;;;;3.10;1.58;;;;;;;5.68;91.76;101671.34;4972332;28;97824;-34
2021/12/11 10:11:07;;;;;;;1.63;1.17;;;;;;;5.79;91.70;101697.03;4974507;28;96892;-34
2021/12/11 10:13:36;;;;;;;3.10;1.85;;;;;;;5.73;91.57;101682.84;4971221;28;96812;-34
2021/12/11 10:16:02;;;;;;;5.03;2.42;;;;;;;5.85;91.52;101692.38;4970358;28;99330;-34
2021/12/11 10:18:29;;;;;;;4.20;1.83;;;;;;;5.89;91.25;101694.06;4971500;28;97448;-34
2021/12/11 10:21:21;;;;;;;2.22;1.75;;;;;;;6.01;91.03;101705.44;4970184;28;97776;-34
2021/12/11 10:23:52;;;;;;;3.38;1.45;;;;;;;6.10;90.96;101702.44;4972327;28;96416;-34
2021/12/11 10:26:22;;;;;;;4.17;2.73;;;;;;;6.16;90.94;101695.09;4970018;28;103986;-35
2021/12/11 10:28:52;;;;;;;3.78;1.92;;;;;;;6.31;90.52;101701.81;4986993;28;101348;-35
2021/12/11 10:31:25;;;;;;;3.38;1.95;;;;;;;6.48;90.02;101703.13;4970643;28;96694;-34
2021/12/11 10:33:50;;;;;;;;;;;;;;;6.76;89.64;101703.13;4987391;28;96836;-35
2021/12/11 10:36:20;;;;;;;2.63;1.27;;;;;;;6.72;89.22;101704.16;4970375;28;99060;-34
2021/12/11 10:38:47;;;;;;;3.97;2.03;;;;;;;6.52;89.04;101704.78;4986925;28;100730;-34
2021/12/11 10:41:14;;;;;;;2.63;1.35;;;;;;;6.44;89.09;101709.53;4970519;28;96625;-34
2021/12/11 10:43:53;;;;;;;2.13;1.25;;;;;;;6.32;89.08;101711.66;4972248;28;96669;-34
2021/12/11 10:46:21;;;;;;;2.90;1.08;;;;;;;6.30;89.67;101723.41;4973186;28;101428;-34
2021/12/11 10:48:47;;;;;;;6.20;1.85;;;;;;;6.23;89.63;101722.69;4973653;28;101336;-34
2021/12/11 10:51:20;;;;;;;2.63;1.83;;;;;;;6.12;90.03;101719.44;4973623;28;96699;-34
2021/12/11 10:53:51;;;;;;;3.13;1.52;;;;;;;6.21;90.05;101739.81;4990314;28;96854;-34
2021/12/11 10:56:19;;;;;;;2.70;1.55;;;;;;;6.18;90.17;101737.22;4973498;28;101567;-34
2021/12/11 10:58:50;;;;;;;5.43;2.03;;;;;;;6.09;90.06;101723.09;4989936;28;100959;-34
2021/12/11 11:01:27;;;;;;;4.68;2.15;;;;;;;6.10;90.24;101732.94;4973670;28;96606;-34
2021/12/11 11:04:07;;;;;;;7.07;1.88;;;;;;;6.17;90.51;101744.38;4974825;28;96755;-34
2021/12/11 11:06:32;;;;;;;4.90;2.15;;;;;;;6.11;90.41;101736.50;4973382;28;100945;-34
2021/12/11 11:08:58;;;;;;;4.57;2.40;;;;;;;6.15;90.81;101725.63;4974782;28;97383;-34
2021/12/11 11:11:27;;;;;;;7.63;2.45;;;;;;;6.19;90.55;101736.28;4974275;28;97636;-34
2021/12/11 11:13:53;;;;;;;27.83;2.67;;;;;;;6.27;90.90;101745.00;4973482;28;96901;-34
2021/12/11 11:16:20;;;;;;;10.10;2.03;;;;;;;6.34;91.00;101747.47;4974665;28;96771;-34
2021/12/11 11:18:47;;;;;;;12.60;2.25;;;;;;;6.36;90.81;101751.00;4973151;28;100775;-34
2021/12/11 11:21:22;;;;;;;3.13;1.23;;;;;;;6.34;90.66;101746.56;4973240;28;96720;-34
2021/12/11 11:23:49;;;;;;;4.30;1.45;;;;;;;6.37;90.38;101755.47;4973381;28;96742;-34
2021/12/11 11:26:23;;;;;;;4.50;1.50;;;;;;;6.32;90.17;101760.09;4989538;28;100876;-34
2021/12/11 11:28:48;;;;;;;2.45;1.30;;;;;;;6.32;90.54;101748.47;4974804;28;97428;-34
2021/12/11 11:31:17;;;;;;;11.02;1.35;;;;;;;6.35;90.84;101754.63;4974561;28;96569;-34
2021/12/11 11:33:45;;;;;;;4.30;1.58;;;;;;;6.46;90.51;101756.09;4972689;28;96858;-34
2021/12/11 11:36:13;;;;;;;1.92;0.90;;;;;;;6.42;90.08;101752.63;4989013;28;101161;-34
2021/12/11 11:38:42;;;;;;;3.45;1.10;;;;;;;6.53;90.09;101760.38;4972691;28;101001;-34
2021/12/11 11:41:12;;;;;;;5.55;1.40;;;;;;;6.63;89.94;101766.38;4989505;28;96623;-34
2021/12/11 11:43:39;;;;;;;1.77;1.35;;;;;;;6.73;89.52;101770.56;4973012;28;97302;-34
2021/12/11 11:46:05;;;;;;;2.95;1.13;;;;;;;6.83;89.27;101779.22;4972748;28;101122;-35
2021/12/11 11:48:33;;;;;;;3.95;1.83;;;;;;;6.86;89.09;101782.69;4989116;28;101231;-35
2021/12/11 11:51:02;;;;;;;0.60;0.60;;;;;;;6.88;88.70;101779.97;4972552;28;100211;-34
2021/12/11 11:53:27;;;;;;;8.10;1.35;;;;;;;6.88;88.62;101782.66;4972488;28;96742;-35
2021/12/11 11:55:57;;;;;;;1.70;1.05;;;;;;;7.02;88.47;101805.53;4973977;28;97502;-34
2021/12/11 11:58:25;;;;;;;0.75;0.65;;;;;;;7.08;87.94;101791.00;4989325;28;100837;-34
2021/12/11 12:00:57;;;;;;;1.55;0.93;;;;;;;7.04;88.03;101800.09;4988817;28;97161;-34